createdAt,value
2023-02-14T00:07:24.882Z,82.54
2023-02-14T00:18:53.937Z,82.75
2023-02-14T00:30:13.823Z,82.60
2023-02-14T00:41:41.353Z,82.80
2023-02-14T00:53:06.493Z,83.04
2023-02-14T01:04:03.271Z,83.38
2023-02-14T01:14:59.008Z,82.98
2023-02-14T01:25:33.551Z,83.23
2023-02-14T01:36:17.783Z,83.52
2023-02-14T01:47:22.668Z,83.89
2023-02-14T01:57:51.961Z,83.79
2023-02-14T02:09:08.077Z,84.01
2023-02-14T02:20:06.552Z,84.09
2023-02-14T02:31:04.165Z,83.96
2023-02-14T02:42:36.913Z,83.75
2023-02-14T02:53:40.105Z,83.73
2023-02-14T03:04:39.817Z,83.93
2023-02-14T03:15:53.312Z,83.81
2023-02-14T03:27:20.827Z,83.77
2023-02-14T03:38:18.671Z,83.91
2023-02-14T03:49:32.324Z,84.01
2023-02-14T04:00:30.096Z,84.09
2023-02-14T04:11:54.982Z,83.84
2023-02-14T04:23:03.508Z,83.95
2023-02-14T04:33:46.578Z,84.00
2023-02-14T04:44:54.208Z,84.01
2023-02-14T04:55:41.967Z,83.71
2023-02-14T05:06:50.257Z,83.44
2023-02-14T05:18:08.840Z,83.63
2023-02-14T05:29:33.585Z,83.69
2023-02-14T05:40:47.565Z,83.72
2023-02-14T05:51:54.397Z,83.73
2023-02-14T06:02:52.401Z,83.73
2023-02-14T06:13:33.281Z,83.59
2023-02-14T06:24:58.221Z,83.28
2023-02-14T06:35:55.905Z,83.24
2023-02-14T06:46:52.882Z,83.30
2023-02-14T06:58:08.425Z,82.96
2023-02-14T07:09:15.202Z,82.84
2023-02-14T07:20:09.616Z,82.29
2023-02-14T07:30:57.311Z,81.86
2023-02-14T07:41:37.358Z,81.56
2023-02-14T07:52:34.422Z,81.62
2023-02-14T08:03:22.716Z,81.22
2023-02-14T08:14:00.887Z,80.74
2023-02-14T08:24:36.193Z,80.80
2023-02-14T08:35:42.584Z,80.35
2023-02-14T08:46:32.131Z,80.17
2023-02-14T08:57:03.883Z,80.03
2023-02-14T09:07:57.503Z,79.84
2023-02-14T09:18:35.197Z,79.15
2023-02-14T09:29:34.029Z,77.77
2023-02-14T09:40:06.983Z,77.18
2023-02-14T09:50:48.039Z,76.28
2023-02-14T10:02:24.995Z,75.15
2023-02-14T10:13:15.322Z,74.12
2023-02-14T10:23:58.584Z,73.84
2023-02-14T10:34:31.313Z,73.66
2023-02-14T10:45:34.156Z,72.58
2023-02-14T10:55:49.692Z,71.59
2023-02-14T11:07:14.092Z,70.66
2023-02-14T11:18:04.858Z,69.78
2023-02-14T11:29:35.418Z,69.28
2023-02-14T11:40:43.257Z,69.52
2023-02-14T11:52:17.435Z,69.89
2023-02-14T12:03:36.093Z,69.48
2023-02-14T12:14:43.224Z,69.62
2023-02-14T12:25:59.198Z,69.40
2023-02-14T12:37:28.575Z,69.38
2023-02-14T12:49:13.642Z,69.24
2023-02-14T13:00:24.327Z,69.26
2023-02-14T13:12:01.563Z,69.47
2023-02-14T13:23:26.408Z,69.40
2023-02-14T13:35:09.260Z,69.29
2023-02-14T13:46:32.959Z,69.25
2023-02-14T13:57:41.759Z,69.60
2023-02-14T14:09:16.011Z,69.59
2023-02-14T14:20:40.827Z,69.43
2023-02-14T14:31:29.984Z,69.91
2023-02-14T14:42:16.744Z,70.08
2023-02-14T14:52:41.836Z,70.89
2023-02-14T15:03:59.326Z,71.02
2023-02-14T15:15:24.618Z,71.55
2023-02-14T15:26:50.145Z,72.07
2023-02-14T15:38:16.094Z,72.72
2023-02-14T15:49:22.932Z,73.42
2023-02-14T16:00:27.972Z,73.84
2023-02-14T16:11:06.480Z,74.50
2023-02-14T16:22:00.636Z,74.73
2023-02-14T16:33:05.262Z,75.22
2023-02-14T16:44:30.257Z,75.77
2023-02-14T16:54:58.693Z,76.60
2023-02-14T17:05:33.213Z,76.94
2023-02-14T17:16:22.667Z,77.66
2023-02-14T17:26:33.158Z,77.91
2023-02-14T17:37:07.835Z,77.94
2023-02-14T17:47:49.835Z,78.15
2023-02-14T17:58:49.612Z,78.75
2023-02-14T18:09:32.851Z,78.71
2023-02-14T18:20:49.724Z,78.92
2023-02-14T18:31:01.047Z,79.13
2023-02-14T18:42:14.257Z,79.31
2023-02-14T18:53:11.521Z,79.29
2023-02-14T19:03:43.812Z,79.40
2023-02-14T19:14:03.864Z,79.69
2023-02-14T19:24:09.521Z,79.98
2023-02-14T19:34:39.378Z,79.96
2023-02-14T19:45:16.523Z,80.09
2023-02-14T19:55:24.518Z,80.24
2023-02-14T20:06:04.222Z,80.07
2023-02-14T20:16:23.871Z,80.19
2023-02-14T20:26:54.855Z,80.08
2023-02-14T20:37:54.294Z,80.40
2023-02-14T20:48:20.837Z,80.57
2023-02-14T20:58:56.336Z,80.80
2023-02-14T21:09:38.474Z,80.60
2023-02-14T21:21:04.572Z,80.83
2023-02-14T21:31:33.004Z,80.85
2023-02-14T21:42:28.462Z,81.35
2023-02-14T21:53:34.782Z,81.34
2023-02-14T22:04:13.142Z,81.11
2023-02-14T22:14:24.146Z,81.14
2023-02-14T22:25:19.972Z,81.69
2023-02-14T22:35:58.008Z,81.60
2023-02-14T22:46:17.742Z,81.51
2023-02-14T22:57:06.658Z,81.73
2023-02-14T23:07:14.458Z,82.27
2023-02-14T23:17:57.040Z,82.47
2023-02-14T23:28:14.860Z,82.41
2023-02-14T23:38:54.753Z,82.62
2023-02-14T23:49:06.917Z,82.82
2023-02-14T23:59:46.962Z,82.55
